sensor_id;sensor_type;location;lat;lon;timestamp;P1;durP1;ratioP1;P2;durP2;ratioP2
19971;SDS011;10147;16.402;102.848;2022-12-10T00:02:19;50.75;;;45.58;;
19971;SDS011;10147;16.402;102.848;2022-12-10T00:04:49;54.35;;;48.75;;
19971;SDS011;10147;16.402;102.848;2022-12-10T00:07:20;38.25;;;30.58;;
19971;SDS011;10147;16.402;102.848;2022-12-10T00:09:51;37.40;;;30.05;;
19971;SDS011;10147;16.402;102.848;2022-12-10T00:12:21;44.15;;;33.08;;
19971;SDS011;10147;16.402;102.848;2022-12-10T00:14:51;37.15;;;29.48;;
19971;SDS011;10147;16.402;102.848;2022-12-10T00:17:22;41.08;;;32.30;;
19971;SDS011;10147;16.402;102.848;2022-12-10T00:19:52;43.40;;;31.02;;
19971;SDS011;10147;16.402;102.848;2022-12-10T00:22:23;39.55;;;31.20;;
19971;SDS011;10147;16.402;102.848;2022-12-10T00:24:54;44.78;;;29.83;;
19971;SDS011;10147;16.402;102.848;2022-12-10T00:27:24;37.90;;;30.15;;
19971;SDS011;10147;16.402;102.848;2022-12-10T00:29:55;40.53;;;29.42;;
19971;SDS011;10147;16.402;102.848;2022-12-10T00:32:25;37.78;;;27.60;;
19971;SDS011;10147;16.402;102.848;2022-12-10T00:34:56;61.38;;;46.80;;
19971;SDS011;10147;16.402;102.848;2022-12-10T00:37:26;39.83;;;28.55;;
19971;SDS011;10147;16.402;102.848;2022-12-10T00:39:56;34.15;;;27.10;;
19971;SDS011;10147;16.402;102.848;2022-12-10T00:42:26;36.75;;;26.05;;
19971;SDS011;10147;16.402;102.848;2022-12-10T00:44:57;30.05;;;22.67;;
19971;SDS011;10147;16.402;102.848;2022-12-10T00:47:28;28.40;;;22.95;;
19971;SDS011;10147;16.402;102.848;2022-12-10T00:49:59;28.20;;;21.95;;
19971;SDS011;10147;16.402;102.848;2022-12-10T00:52:29;37.75;;;28.42;;
19971;SDS011;10147;16.402;102.848;2022-12-10T00:54:59;30.67;;;24.08;;
19971;SDS011;10147;16.402;102.848;2022-12-10T00:57:29;27.35;;;20.45;;
19971;SDS011;10147;16.402;102.848;2022-12-10T00:59:59;57.03;;;51.67;;
19971;SDS011;10147;16.402;102.848;2022-12-10T01:02:30;36.13;;;32.03;;
19971;SDS011;10147;16.402;102.848;2022-12-10T01:05:01;58.83;;;54.03;;
19971;SDS011;10147;16.402;102.848;2022-12-10T01:07:31;45.35;;;41.05;;
19971;SDS011;10147;16.402;102.848;2022-12-10T01:10:02;31.75;;;25.67;;
19971;SDS011;10147;16.402;102.848;2022-12-10T01:12:33;29.73;;;21.25;;
19971;SDS011;10147;16.402;102.848;2022-12-10T01:15:04;25.48;;;17.70;;
19971;SDS011;10147;16.402;102.848;2022-12-10T01:17:35;22.85;;;17.10;;
19971;SDS011;10147;16.402;102.848;2022-12-10T01:20:06;24.20;;;19.10;;
19971;SDS011;10147;16.402;102.848;2022-12-10T01:22:37;22.27;;;16.73;;
19971;SDS011;10147;16.402;102.848;2022-12-10T01:25:11;21.85;;;15.57;;
19971;SDS011;10147;16.402;102.848;2022-12-10T01:27:42;23.75;;;17.88;;
19971;SDS011;10147;16.402;102.848;2022-12-10T01:30:13;21.63;;;16.90;;
19971;SDS011;10147;16.402;102.848;2022-12-10T01:32:43;24.83;;;15.93;;
19971;SDS011;10147;16.402;102.848;2022-12-10T01:35:14;21.33;;;16.45;;
19971;SDS011;10147;16.402;102.848;2022-12-10T01:37:46;21.33;;;15.77;;
19971;SDS011;10147;16.402;102.848;2022-12-10T01:40:16;20.58;;;15.73;;
19971;SDS011;10147;16.402;102.848;2022-12-10T01:42:47;21.75;;;16.02;;
19971;SDS011;10147;16.402;102.848;2022-12-10T01:45:17;27.67;;;19.67;;
19971;SDS011;10147;16.402;102.848;2022-12-10T01:47:48;24.55;;;17.30;;
19971;SDS011;10147;16.402;102.848;2022-12-10T01:50:19;23.92;;;17.38;;
19971;SDS011;10147;16.402;102.848;2022-12-10T01:52:50;25.60;;;18.88;;
19971;SDS011;10147;16.402;102.848;2022-12-10T01:58:14;22.67;;;17.05;;
19971;SDS011;10147;16.402;102.848;2022-12-10T02:00:58;22.02;;;15.60;;
19971;SDS011;10147;16.402;102.848;2022-12-10T02:07:06;20.00;;;15.40;;
19971;SDS011;10147;16.402;102.848;2022-12-10T02:10:10;25.52;;;19.08;;
19971;SDS011;10147;16.402;102.848;2022-12-10T02:12:57;22.80;;;15.80;;
19971;SDS011;10147;16.402;102.848;2022-12-10T02:15:50;24.95;;;16.58;;
19971;SDS011;10147;16.402;102.848;2022-12-10T02:18:26;18.85;;;14.35;;
19971;SDS011;10147;16.402;102.848;2022-12-10T02:21:04;20.73;;;14.65;;
19971;SDS011;10147;16.402;102.848;2022-12-10T02:23:40;22.17;;;14.90;;
19971;SDS011;10147;16.402;102.848;2022-12-10T02:26:32;22.50;;;15.05;;
19971;SDS011;10147;16.402;102.848;2022-12-10T02:29:22;20.08;;;15.25;;
19971;SDS011;10147;16.402;102.848;2022-12-10T02:31:56;22.35;;;13.63;;
19971;SDS011;10147;16.402;102.848;2022-12-10T02:34:47;18.55;;;13.38;;
19971;SDS011;10147;16.402;102.848;2022-12-10T02:37:39;22.95;;;13.50;;
19971;SDS011;10147;16.402;102.848;2022-12-10T02:40:20;21.90;;;16.52;;
19971;SDS011;10147;16.402;102.848;2022-12-10T02:42:56;24.80;;;17.92;;
19971;SDS011;10147;16.402;102.848;2022-12-10T02:45:27;21.33;;;14.88;;
19971;SDS011;10147;16.402;102.848;2022-12-10T02:48:01;19.52;;;13.70;;
19971;SDS011;10147;16.402;102.848;2022-12-10T02:50:39;26.17;;;17.95;;
19971;SDS011;10147;16.402;102.848;2022-12-10T02:53:09;19.77;;;14.48;;
19971;SDS011;10147;16.402;102.848;2022-12-10T02:56:04;18.70;;;12.63;;
19971;SDS011;10147;16.402;102.848;2022-12-10T02:58:57;17.40;;;12.27;;
19971;SDS011;10147;16.402;102.848;2022-12-10T03:02:01;19.13;;;12.13;;
19971;SDS011;10147;16.402;102.848;2022-12-10T03:08:00;16.77;;;11.98;;
19971;SDS011;10147;16.402;102.848;2022-12-10T03:13:49;16.75;;;13.57;;
19971;SDS011;10147;16.402;102.848;2022-12-10T03:16:51;16.85;;;11.77;;
19971;SDS011;10147;16.402;102.848;2022-12-10T03:19:28;18.17;;;12.70;;
19971;SDS011;10147;16.402;102.848;2022-12-10T03:22:07;20.10;;;13.80;;
19971;SDS011;10147;16.402;102.848;2022-12-10T03:24:41;17.27;;;12.90;;
19971;SDS011;10147;16.402;102.848;2022-12-10T03:27:13;18.90;;;13.23;;
19971;SDS011;10147;16.402;102.848;2022-12-10T03:29:48;18.02;;;12.05;;
19971;SDS011;10147;16.402;102.848;2022-12-10T03:32:26;17.75;;;10.90;;
19971;SDS011;10147;16.402;102.848;2022-12-10T03:35:03;16.27;;;10.95;;
19971;SDS011;10147;16.402;102.848;2022-12-10T03:37:35;18.10;;;11.70;;
19971;SDS011;10147;16.402;102.848;2022-12-10T03:40:06;22.70;;;19.95;;
19971;SDS011;10147;16.402;102.848;2022-12-10T03:42:38;20.55;;;18.35;;
19971;SDS011;10147;16.402;102.848;2022-12-10T03:45:10;30.05;;;22.17;;
19971;SDS011;10147;16.402;102.848;2022-12-10T03:47:41;18.90;;;12.43;;
19971;SDS011;10147;16.402;102.848;2022-12-10T03:50:13;16.45;;;12.48;;
19971;SDS011;10147;16.402;102.848;2022-12-10T03:52:44;16.27;;;12.02;;
19971;SDS011;10147;16.402;102.848;2022-12-10T03:55:14;18.15;;;13.40;;
19971;SDS011;10147;16.402;102.848;2022-12-10T03:57:44;17.08;;;13.52;;
19971;SDS011;10147;16.402;102.848;2022-12-10T04:00:14;17.40;;;12.50;;
19971;SDS011;10147;16.402;102.848;2022-12-10T04:02:45;17.55;;;14.32;;
19971;SDS011;10147;16.402;102.848;2022-12-10T04:05:16;16.70;;;12.00;;
19971;SDS011;10147;16.402;102.848;2022-12-10T04:07:46;19.55;;;12.15;;
19971;SDS011;10147;16.402;102.848;2022-12-10T04:10:17;15.07;;;11.50;;
19971;SDS011;10147;16.402;102.848;2022-12-10T04:12:47;20.23;;;12.95;;
19971;SDS011;10147;16.402;102.848;2022-12-10T04:15:38;17.88;;;14.55;;
19971;SDS011;10147;16.402;102.848;2022-12-10T04:18:28;18.95;;;14.48;;
19971;SDS011;10147;16.402;102.848;2022-12-10T04:20:59;20.70;;;14.43;;
19971;SDS011;10147;16.402;102.848;2022-12-10T04:23:49;17.58;;;12.98;;
19971;SDS011;10147;16.402;102.848;2022-12-10T04:26:41;19.85;;;13.43;;
19971;SDS011;10147;16.402;102.848;2022-12-10T04:29:28;20.67;;;14.15;;
19971;SDS011;10147;16.402;102.848;2022-12-10T04:31:59;17.77;;;13.05;;
19971;SDS011;10147;16.402;102.848;2022-12-10T04:34:30;15.43;;;11.57;;
19971;SDS011;10147;16.402;102.848;2022-12-10T04:37:00;13.50;;;10.90;;
19971;SDS011;10147;16.402;102.848;2022-12-10T04:39:32;13.68;;;11.65;;
19971;SDS011;10147;16.402;102.848;2022-12-10T04:42:03;16.05;;;12.23;;
19971;SDS011;10147;16.402;102.848;2022-12-10T04:44:35;26.52;;;24.05;;
19971;SDS011;10147;16.402;102.848;2022-12-10T04:47:07;12.27;;;10.35;;
19971;SDS011;10147;16.402;102.848;2022-12-10T04:49:39;13.65;;;11.07;;
19971;SDS011;10147;16.402;102.848;2022-12-10T04:52:11;12.50;;;10.75;;
19971;SDS011;10147;16.402;102.848;2022-12-10T04:54:43;12.52;;;10.07;;
19971;SDS011;10147;16.402;102.848;2022-12-10T04:57:13;12.70;;;10.20;;
19971;SDS011;10147;16.402;102.848;2022-12-10T04:59:44;12.77;;;11.00;;
19971;SDS011;10147;16.402;102.848;2022-12-10T05:02:15;11.88;;;10.27;;
19971;SDS011;10147;16.402;102.848;2022-12-10T05:04:47;19.20;;;11.70;;
19971;SDS011;10147;16.402;102.848;2022-12-10T05:07:18;15.45;;;11.90;;
19971;SDS011;10147;16.402;102.848;2022-12-10T05:09:49;15.75;;;11.43;;
19971;SDS011;10147;16.402;102.848;2022-12-10T05:12:20;18.73;;;16.92;;
19971;SDS011;10147;16.402;102.848;2022-12-10T05:14:50;15.40;;;12.15;;
19971;SDS011;10147;16.402;102.848;2022-12-10T05:17:21;13.13;;;10.82;;
19971;SDS011;10147;16.402;102.848;2022-12-10T05:19:51;14.75;;;11.20;;
19971;SDS011;10147;16.402;102.848;2022-12-10T05:22:22;14.52;;;11.32;;
19971;SDS011;10147;16.402;102.848;2022-12-10T05:25:13;12.80;;;11.15;;
19971;SDS011;10147;16.402;102.848;2022-12-10T05:27:43;14.93;;;11.63;;
19971;SDS011;10147;16.402;102.848;2022-12-10T05:30:14;13.73;;;11.80;;
19971;SDS011;10147;16.402;102.848;2022-12-10T05:32:44;14.35;;;12.55;;
19971;SDS011;10147;16.402;102.848;2022-12-10T05:35:15;24.60;;;22.67;;
19971;SDS011;10147;16.402;102.848;2022-12-10T05:37:47;24.05;;;22.17;;
19971;SDS011;10147;16.402;102.848;2022-12-10T05:40:17;12.95;;;11.52;;
19971;SDS011;10147;16.402;102.848;2022-12-10T05:42:47;15.02;;;10.32;;
19971;SDS011;10147;16.402;102.848;2022-12-10T05:45:18;14.27;;;10.30;;
19971;SDS011;10147;16.402;102.848;2022-12-10T05:47:48;11.95;;;9.80;;
19971;SDS011;10147;16.402;102.848;2022-12-10T05:50:19;12.90;;;10.68;;
19971;SDS011;10147;16.402;102.848;2022-12-10T05:52:50;12.07;;;10.88;;
19971;SDS011;10147;16.402;102.848;2022-12-10T05:55:21;13.35;;;11.25;;
19971;SDS011;10147;16.402;102.848;2022-12-10T05:57:52;15.95;;;10.05;;
19971;SDS011;10147;16.402;102.848;2022-12-10T06:00:22;12.98;;;11.48;;
19971;SDS011;10147;16.402;102.848;2022-12-10T06:02:53;13.60;;;11.60;;
19971;SDS011;10147;16.402;102.848;2022-12-10T06:05:24;14.65;;;13.07;;
19971;SDS011;10147;16.402;102.848;2022-12-10T06:07:54;16.30;;;14.00;;
19971;SDS011;10147;16.402;102.848;2022-12-10T06:10:24;14.55;;;13.02;;
19971;SDS011;10147;16.402;102.848;2022-12-10T06:12:54;15.32;;;13.32;;
19971;SDS011;10147;16.402;102.848;2022-12-10T06:15:25;16.27;;;14.65;;
19971;SDS011;10147;16.402;102.848;2022-12-10T06:17:55;15.25;;;13.57;;
19971;SDS011;10147;16.402;102.848;2022-12-10T06:20:26;14.95;;;13.55;;
19971;SDS011;10147;16.402;102.848;2022-12-10T06:22:56;15.13;;;13.73;;
19971;SDS011;10147;16.402;102.848;2022-12-10T06:25:26;17.40;;;15.02;;
19971;SDS011;10147;16.402;102.848;2022-12-10T06:27:56;14.65;;;13.27;;
19971;SDS011;10147;16.402;102.848;2022-12-10T06:30:27;14.70;;;13.40;;
19971;SDS011;10147;16.402;102.848;2022-12-10T06:32:57;14.18;;;12.73;;
19971;SDS011;10147;16.402;102.848;2022-12-10T06:35:28;16.25;;;14.68;;
19971;SDS011;10147;16.402;102.848;2022-12-10T06:37:58;12.52;;;11.23;;
19971;SDS011;10147;16.402;102.848;2022-12-10T06:40:29;14.90;;;11.52;;
19971;SDS011;10147;16.402;102.848;2022-12-10T06:42:59;17.42;;;13.57;;
19971;SDS011;10147;16.402;102.848;2022-12-10T06:45:30;13.82;;;12.27;;
19971;SDS011;10147;16.402;102.848;2022-12-10T06:48:01;14.43;;;12.02;;
19971;SDS011;10147;16.402;102.848;2022-12-10T06:50:32;13.20;;;11.77;;
19971;SDS011;10147;16.402;102.848;2022-12-10T06:53:02;12.82;;;11.48;;
19971;SDS011;10147;16.402;102.848;2022-12-10T06:55:33;12.68;;;11.48;;
19971;SDS011;10147;16.402;102.848;2022-12-10T06:58:07;12.65;;;10.93;;
19971;SDS011;10147;16.402;102.848;2022-12-10T07:00:37;22.10;;;20.30;;
19971;SDS011;10147;16.402;102.848;2022-12-10T07:03:07;27.35;;;25.05;;
19971;SDS011;10147;16.402;102.848;2022-12-10T07:05:37;13.20;;;11.85;;
19971;SDS011;10147;16.402;102.848;2022-12-10T07:08:07;13.60;;;11.52;;
19971;SDS011;10147;16.402;102.848;2022-12-10T07:10:38;13.18;;;11.75;;
19971;SDS011;10147;16.402;102.848;2022-12-10T07:13:08;12.38;;;11.18;;
19971;SDS011;10147;16.402;102.848;2022-12-10T07:15:39;12.15;;;10.82;;
19971;SDS011;10147;16.402;102.848;2022-12-10T07:18:10;12.65;;;11.10;;
19971;SDS011;10147;16.402;102.848;2022-12-10T07:20:41;12.60;;;11.30;;
19971;SDS011;10147;16.402;102.848;2022-12-10T07:23:11;12.68;;;11.27;;
19971;SDS011;10147;16.402;102.848;2022-12-10T07:25:42;15.05;;;10.52;;
19971;SDS011;10147;16.402;102.848;2022-12-10T07:28:13;12.02;;;10.82;;
19971;SDS011;10147;16.402;102.848;2022-12-10T07:30:43;12.45;;;11.23;;
19971;SDS011;10147;16.402;102.848;2022-12-10T07:33:13;17.90;;;13.32;;
19971;SDS011;10147;16.402;102.848;2022-12-10T07:35:43;12.90;;;11.55;;
19971;SDS011;10147;16.402;102.848;2022-12-10T07:38:15;11.68;;;10.48;;
19971;SDS011;10147;16.402;102.848;2022-12-10T07:40:46;12.75;;;10.80;;
19971;SDS011;10147;16.402;102.848;2022-12-10T07:43:16;11.60;;;10.40;;
19971;SDS011;10147;16.402;102.848;2022-12-10T07:45:47;11.50;;;10.25;;
19971;SDS011;10147;16.402;102.848;2022-12-10T07:48:17;12.45;;;10.45;;
19971;SDS011;10147;16.402;102.848;2022-12-10T07:50:54;11.93;;;9.93;;
19971;SDS011;10147;16.402;102.848;2022-12-10T07:53:26;11.75;;;10.45;;
19971;SDS011;10147;16.402;102.848;2022-12-10T07:55:57;14.63;;;10.48;;
19971;SDS011;10147;16.402;102.848;2022-12-10T07:58:28;12.15;;;10.57;;
19971;SDS011;10147;16.402;102.848;2022-12-10T08:00:58;12.57;;;10.15;;
19971;SDS011;10147;16.402;102.848;2022-12-10T08:03:28;12.48;;;10.32;;
19971;SDS011;10147;16.402;102.848;2022-12-10T08:06:00;60.05;;;48.65;;
19971;SDS011;10147;16.402;102.848;2022-12-10T08:08:35;22.42;;;17.90;;
19971;SDS011;10147;16.402;102.848;2022-12-10T08:11:07;13.70;;;11.35;;
19971;SDS011;10147;16.402;102.848;2022-12-10T08:13:37;16.10;;;12.07;;
19971;SDS011;10147;16.402;102.848;2022-12-10T08:16:14;15.10;;;9.88;;
19971;SDS011;10147;16.402;102.848;2022-12-10T08:18:45;11.57;;;10.38;;
19971;SDS011;10147;16.402;102.848;2022-12-10T08:21:17;13.23;;;11.23;;
19971;SDS011;10147;16.402;102.848;2022-12-10T08:23:49;13.98;;;11.10;;
19971;SDS011;10147;16.402;102.848;2022-12-10T08:26:24;12.00;;;10.80;;
19971;SDS011;10147;16.402;102.848;2022-12-10T08:28:56;12.50;;;11.20;;
19971;SDS011;10147;16.402;102.848;2022-12-10T08:31:27;14.75;;;12.13;;
19971;SDS011;10147;16.402;102.848;2022-12-10T08:34:04;13.23;;;11.15;;
19971;SDS011;10147;16.402;102.848;2022-12-10T08:36:42;12.52;;;10.95;;
19971;SDS011;10147;16.402;102.848;2022-12-10T08:39:14;22.63;;;20.52;;
19971;SDS011;10147;16.402;102.848;2022-12-10T08:41:45;15.55;;;12.43;;
19971;SDS011;10147;16.402;102.848;2022-12-10T08:44:15;12.82;;;11.52;;
19971;SDS011;10147;16.402;102.848;2022-12-10T08:46:46;12.27;;;10.60;;
19971;SDS011;10147;16.402;102.848;2022-12-10T08:49:16;13.77;;;12.38;;
19971;SDS011;10147;16.402;102.848;2022-12-10T08:51:47;12.02;;;10.57;;
19971;SDS011;10147;16.402;102.848;2022-12-10T08:54:18;13.65;;;10.45;;
19971;SDS011;10147;16.402;102.848;2022-12-10T08:56:49;12.75;;;10.93;;
19971;SDS011;10147;16.402;102.848;2022-12-10T08:59:19;11.85;;;10.30;;
19971;SDS011;10147;16.402;102.848;2022-12-10T09:01:51;14.95;;;10.38;;
19971;SDS011;10147;16.402;102.848;2022-12-10T09:04:23;11.23;;;9.95;;
19971;SDS011;10147;16.402;102.848;2022-12-10T09:06:53;15.57;;;10.80;;
19971;SDS011;10147;16.402;102.848;2022-12-10T09:09:23;12.43;;;10.75;;
19971;SDS011;10147;16.402;102.848;2022-12-10T09:11:54;11.77;;;10.32;;
19971;SDS011;10147;16.402;102.848;2022-12-10T09:14:25;11.40;;;10.30;;
19971;SDS011;10147;16.402;102.848;2022-12-10T09:16:56;26.05;;;12.65;;
19971;SDS011;10147;16.402;102.848;2022-12-10T09:19:26;14.65;;;12.15;;
19971;SDS011;10147;16.402;102.848;2022-12-10T09:21:57;16.25;;;13.00;;
19971;SDS011;10147;16.402;102.848;2022-12-10T09:24:27;14.90;;;10.65;;
19971;SDS011;10147;16.402;102.848;2022-12-10T09:26:59;13.70;;;11.38;;
19971;SDS011;10147;16.402;102.848;2022-12-10T09:29:29;12.65;;;10.70;;
19971;SDS011;10147;16.402;102.848;2022-12-10T09:32:01;14.10;;;10.85;;
19971;SDS011;10147;16.402;102.848;2022-12-10T09:34:32;13.13;;;10.90;;
19971;SDS011;10147;16.402;102.848;2022-12-10T09:37:03;11.80;;;9.93;;
19971;SDS011;10147;16.402;102.848;2022-12-10T09:39:34;11.68;;;10.27;;
19971;SDS011;10147;16.402;102.848;2022-12-10T09:42:09;11.88;;;10.57;;
19971;SDS011;10147;16.402;102.848;2022-12-10T09:45:10;12.48;;;10.40;;
19971;SDS011;10147;16.402;102.848;2022-12-10T09:51:03;15.50;;;10.20;;
19971;SDS011;10147;16.402;102.848;2022-12-10T09:53:41;24.80;;;10.00;;
19971;SDS011;10147;16.402;102.848;2022-12-10T09:56:21;14.18;;;9.65;;
19971;SDS011;10147;16.402;102.848;2022-12-10T09:59:00;11.98;;;9.75;;
19971;SDS011;10147;16.402;102.848;2022-12-10T10:01:42;13.98;;;10.18;;
19971;SDS011;10147;16.402;102.848;2022-12-10T10:04:13;12.80;;;10.15;;
19971;SDS011;10147;16.402;102.848;2022-12-10T10:06:44;11.68;;;10.15;;
19971;SDS011;10147;16.402;102.848;2022-12-10T10:09:15;12.77;;;10.75;;
19971;SDS011;10147;16.402;102.848;2022-12-10T10:11:46;13.13;;;11.35;;
19971;SDS011;10147;16.402;102.848;2022-12-10T10:14:24;12.48;;;11.02;;
19971;SDS011;10147;16.402;102.848;2022-12-10T10:17:03;12.98;;;10.15;;
19971;SDS011;10147;16.402;102.848;2022-12-10T10:19:41;15.10;;;10.98;;
19971;SDS011;10147;16.402;102.848;2022-12-10T10:22:12;12.18;;;10.38;;
19971;SDS011;10147;16.402;102.848;2022-12-10T10:24:43;21.30;;;17.13;;
19971;SDS011;10147;16.402;102.848;2022-12-10T10:27:22;21.75;;;17.08;;
19971;SDS011;10147;16.402;102.848;2022-12-10T10:29:57;27.60;;;21.63;;
19971;SDS011;10147;16.402;102.848;2022-12-10T10:35:29;29.15;;;13.25;;
19971;SDS011;10147;16.402;102.848;2022-12-10T10:38:07;30.92;;;26.08;;
19971;SDS011;10147;16.402;102.848;2022-12-10T10:40:49;25.65;;;18.27;;
19971;SDS011;10147;16.402;102.848;2022-12-10T10:43:31;29.08;;;19.48;;
19971;SDS011;10147;16.402;102.848;2022-12-10T10:46:10;26.25;;;14.82;;
19971;SDS011;10147;16.402;102.848;2022-12-10T10:48:42;41.55;;;22.42;;
19971;SDS011;10147;16.402;102.848;2022-12-10T10:51:18;32.95;;;22.10;;
19971;SDS011;10147;16.402;102.848;2022-12-10T10:53:53;37.38;;;20.48;;
19971;SDS011;10147;16.402;102.848;2022-12-10T10:56:25;27.17;;;21.70;;
19971;SDS011;10147;16.402;102.848;2022-12-10T11:02:02;40.40;;;23.08;;
19971;SDS011;10147;16.402;102.848;2022-12-10T11:04:53;37.92;;;22.17;;
19971;SDS011;10147;16.402;102.848;2022-12-10T11:07:33;48.53;;;21.98;;
19971;SDS011;10147;16.402;102.848;2022-12-10T11:10:16;33.28;;;17.83;;
19971;SDS011;10147;16.402;102.848;2022-12-10T11:16:16;33.08;;;19.15;;
19971;SDS011;10147;16.402;102.848;2022-12-10T11:21:48;30.40;;;18.88;;
19971;SDS011;10147;16.402;102.848;2022-12-10T11:24:19;31.55;;;19.20;;
19971;SDS011;10147;16.402;102.848;2022-12-10T11:26:57;29.70;;;20.30;;
19971;SDS011;10147;16.402;102.848;2022-12-10T11:32:39;37.22;;;21.40;;
19971;SDS011;10147;16.402;102.848;2022-12-10T11:38:34;67.53;;;40.33;;
19971;SDS011;10147;16.402;102.848;2022-12-10T11:41:26;56.65;;;31.75;;
19971;SDS011;10147;16.402;102.848;2022-12-10T11:47:10;50.38;;;28.10;;
19971;SDS011;10147;16.402;102.848;2022-12-10T11:59:05;57.72;;;31.23;;
19971;SDS011;10147;16.402;102.848;2022-12-10T12:08:42;45.15;;;26.15;;
19971;SDS011;10147;16.402;102.848;2022-12-10T12:17:43;42.95;;;26.88;;
19971;SDS011;10147;16.402;102.848;2022-12-10T12:20:30;56.78;;;36.42;;
19971;SDS011;10147;16.402;102.848;2022-12-10T12:23:11;65.45;;;41.25;;
19971;SDS011;10147;16.402;102.848;2022-12-10T12:26:06;52.35;;;33.63;;
19971;SDS011;10147;16.402;102.848;2022-12-10T12:31:56;51.80;;;32.70;;
19971;SDS011;10147;16.402;102.848;2022-12-10T12:34:45;48.10;;;31.40;;
19971;SDS011;10147;16.402;102.848;2022-12-10T12:37:38;47.22;;;31.23;;
19971;SDS011;10147;16.402;102.848;2022-12-10T12:43:10;72.65;;;40.33;;
19971;SDS011;10147;16.402;102.848;2022-12-10T12:45:46;53.83;;;32.70;;
19971;SDS011;10147;16.402;102.848;2022-12-10T12:51:29;73.65;;;37.97;;
19971;SDS011;10147;16.402;102.848;2022-12-10T12:54:13;93.35;;;48.05;;
19971;SDS011;10147;16.402;102.848;2022-12-10T13:05:56;73.50;;;38.70;;
19971;SDS011;10147;16.402;102.848;2022-12-10T13:08:57;68.40;;;37.03;;
19971;SDS011;10147;16.402;102.848;2022-12-10T13:14:55;62.63;;;34.85;;
19971;SDS011;10147;16.402;102.848;2022-12-10T13:21:16;60.38;;;34.83;;
19971;SDS011;10147;16.402;102.848;2022-12-10T13:24:18;56.20;;;34.85;;
19971;SDS011;10147;16.402;102.848;2022-12-10T13:30:05;57.17;;;35.70;;
19971;SDS011;10147;16.402;102.848;2022-12-10T13:33:14;71.47;;;38.95;;
19971;SDS011;10147;16.402;102.848;2022-12-10T13:35:51;71.30;;;38.10;;
19971;SDS011;10147;16.402;102.848;2022-12-10T13:38:42;90.45;;;45.35;;
19971;SDS011;10147;16.402;102.848;2022-12-10T13:41:25;160.77;;;107.40;;
19971;SDS011;10147;16.402;102.848;2022-12-10T13:47:24;68.90;;;37.13;;
19971;SDS011;10147;16.402;102.848;2022-12-10T13:50:18;74.50;;;37.97;;
19971;SDS011;10147;16.402;102.848;2022-12-10T13:53:21;52.88;;;32.38;;
19971;SDS011;10147;16.402;102.848;2022-12-10T14:02:46;42.60;;;25.67;;
19971;SDS011;10147;16.402;102.848;2022-12-10T14:08:36;35.00;;;23.10;;
19971;SDS011;10147;16.402;102.848;2022-12-10T14:11:13;36.88;;;24.95;;
19971;SDS011;10147;16.402;102.848;2022-12-10T14:13:52;42.58;;;25.30;;
19971;SDS011;10147;16.402;102.848;2022-12-10T14:16:28;42.88;;;26.90;;
19971;SDS011;10147;16.402;102.848;2022-12-10T14:19:04;39.88;;;26.55;;
19971;SDS011;10147;16.402;102.848;2022-12-10T14:21:38;41.97;;;27.92;;
19971;SDS011;10147;16.402;102.848;2022-12-10T14:27:09;46.85;;;28.48;;
19971;SDS011;10147;16.402;102.848;2022-12-10T14:29:47;73.50;;;38.72;;
19971;SDS011;10147;16.402;102.848;2022-12-10T14:32:20;68.55;;;40.63;;
19971;SDS011;10147;16.402;102.848;2022-12-10T14:35:00;64.70;;;36.67;;
19971;SDS011;10147;16.402;102.848;2022-12-10T14:37:35;61.22;;;36.17;;
19971;SDS011;10147;16.402;102.848;2022-12-10T14:40:08;55.03;;;32.75;;
19971;SDS011;10147;16.402;102.848;2022-12-10T14:42:47;54.25;;;33.53;;
19971;SDS011;10147;16.402;102.848;2022-12-10T14:45:17;51.92;;;30.25;;
19971;SDS011;10147;16.402;102.848;2022-12-10T14:47:48;43.70;;;29.02;;
19971;SDS011;10147;16.402;102.848;2022-12-10T14:50:18;46.28;;;28.63;;
19971;SDS011;10147;16.402;102.848;2022-12-10T14:52:50;50.75;;;29.92;;
19971;SDS011;10147;16.402;102.848;2022-12-10T14:55:22;54.53;;;32.35;;
19971;SDS011;10147;16.402;102.848;2022-12-10T14:57:58;47.83;;;28.80;;
19971;SDS011;10147;16.402;102.848;2022-12-10T15:00:32;53.55;;;31.25;;
19971;SDS011;10147;16.402;102.848;2022-12-10T15:03:08;67.10;;;41.15;;
19971;SDS011;10147;16.402;102.848;2022-12-10T15:05:40;55.42;;;35.85;;
19971;SDS011;10147;16.402;102.848;2022-12-10T15:08:14;48.10;;;28.30;;
19971;SDS011;10147;16.402;102.848;2022-12-10T15:10:49;59.28;;;39.17;;
19971;SDS011;10147;16.402;102.848;2022-12-10T15:13:33;58.72;;;37.08;;
19971;SDS011;10147;16.402;102.848;2022-12-10T15:16:20;58.05;;;41.92;;
19971;SDS011;10147;16.402;102.848;2022-12-10T15:19:18;53.45;;;33.15;;
19971;SDS011;10147;16.402;102.848;2022-12-10T15:21:52;50.42;;;32.58;;
19971;SDS011;10147;16.402;102.848;2022-12-10T15:24:39;56.30;;;34.85;;
19971;SDS011;10147;16.402;102.848;2022-12-10T15:30:20;55.90;;;33.42;;
19971;SDS011;10147;16.402;102.848;2022-12-10T15:32:53;58.13;;;31.65;;
19971;SDS011;10147;16.402;102.848;2022-12-10T15:35:23;55.38;;;31.58;;
19971;SDS011;10147;16.402;102.848;2022-12-10T15:37:57;52.25;;;31.45;;
19971;SDS011;10147;16.402;102.848;2022-12-10T15:40:29;47.15;;;29.00;;
19971;SDS011;10147;16.402;102.848;2022-12-10T15:45:55;49.03;;;29.98;;
19971;SDS011;10147;16.402;102.848;2022-12-10T15:48:28;52.25;;;29.75;;
19971;SDS011;10147;16.402;102.848;2022-12-10T15:50:59;43.00;;;27.52;;
19971;SDS011;10147;16.402;102.848;2022-12-10T15:53:34;42.20;;;25.92;;
19971;SDS011;10147;16.402;102.848;2022-12-10T15:56:07;92.07;;;63.03;;
19971;SDS011;10147;16.402;102.848;2022-12-10T15:58:37;88.07;;;66.40;;
19971;SDS011;10147;16.402;102.848;2022-12-10T16:01:13;49.72;;;35.28;;
19971;SDS011;10147;16.402;102.848;2022-12-10T16:03:45;48.88;;;31.50;;
19971;SDS011;10147;16.402;102.848;2022-12-10T16:06:15;47.25;;;31.10;;
19971;SDS011;10147;16.402;102.848;2022-12-10T16:08:47;46.58;;;30.67;;
19971;SDS011;10147;16.402;102.848;2022-12-10T16:11:18;49.53;;;31.40;;
19971;SDS011;10147;16.402;102.848;2022-12-10T16:13:51;40.03;;;29.20;;
19971;SDS011;10147;16.402;102.848;2022-12-10T16:16:24;45.38;;;29.75;;
19971;SDS011;10147;16.402;102.848;2022-12-10T16:18:55;44.65;;;29.40;;
19971;SDS011;10147;16.402;102.848;2022-12-10T16:21:26;45.00;;;29.85;;
19971;SDS011;10147;16.402;102.848;2022-12-10T16:23:57;43.10;;;29.02;;
19971;SDS011;10147;16.402;102.848;2022-12-10T16:26:27;43.10;;;29.15;;
19971;SDS011;10147;16.402;102.848;2022-12-10T16:28:57;51.03;;;39.47;;
19971;SDS011;10147;16.402;102.848;2022-12-10T16:31:29;43.95;;;32.03;;